sensor_id;sensor_type;location;lat;lon;timestamp;pressure;altitude;pressure_sealevel;temperature
30765;BMP180;494;48.744;10.106;2023-02-25T00:02:06;94143.00;;;5.00
30765;BMP180;494;48.744;10.106;2023-02-25T00:04:36;94257.00;;;5.00
30765;BMP180;494;48.744;10.106;2023-02-25T00:07:04;94453.00;;;4.80
30765;BMP180;494;48.744;10.106;2023-02-25T00:09:35;94374.00;;;4.80
30765;BMP180;494;48.744;10.106;2023-02-25T00:12:04;94369.00;;;4.80
30765;BMP180;494;48.744;10.106;2023-02-25T00:14:33;94335.00;;;5.00
30765;BMP180;494;48.744;10.106;2023-02-25T00:17:01;94191.00;;;2.70
30765;BMP180;494;48.744;10.106;2023-02-25T00:19:30;93562.00;;;2.50
30765;BMP180;494;48.744;10.106;2023-02-25T00:21:59;94084.00;;;5.00
30765;BMP180;494;48.744;10.106;2023-02-25T00:24:27;94143.00;;;5.10
30765;BMP180;494;48.744;10.106;2023-02-25T00:26:58;94429.00;;;4.90
30765;BMP180;494;48.744;10.106;2023-02-25T00:29:26;93556.00;;;5.00
30765;BMP180;494;48.744;10.106;2023-02-25T00:31:55;94388.00;;;1.80
30765;BMP180;494;48.744;10.106;2023-02-25T00:34:24;93942.00;;;4.80
30765;BMP180;494;48.744;10.106;2023-02-25T00:36:54;94395.00;;;4.90
30765;BMP180;494;48.744;10.106;2023-02-25T00:39:23;94140.00;;;4.90
30765;BMP180;494;48.744;10.106;2023-02-25T00:42:04;94303.00;;;5.10
30765;BMP180;494;48.744;10.106;2023-02-25T00:44:33;93924.00;;;3.30
30765;BMP180;494;48.744;10.106;2023-02-25T00:47:01;94496.00;;;4.80
30765;BMP180;494;48.744;10.106;2023-02-25T00:49:31;94188.00;;;4.80
30765;BMP180;494;48.744;10.106;2023-02-25T00:52:00;94438.00;;;4.10
30765;BMP180;494;48.744;10.106;2023-02-25T00:54:29;93538.00;;;4.90
30765;BMP180;494;48.744;10.106;2023-02-25T00:56:57;94402.00;;;4.20
30765;BMP180;494;48.744;10.106;2023-02-25T00:59:27;94383.00;;;4.70
30765;BMP180;494;48.744;10.106;2023-02-25T01:01:56;94196.00;;;4.70
30765;BMP180;494;48.744;10.106;2023-02-25T01:04:25;93475.00;;;4.60
30765;BMP180;494;48.744;10.106;2023-02-25T01:06:54;94164.00;;;4.60
30765;BMP180;494;48.744;10.106;2023-02-25T01:09:23;94128.00;;;4.50
30765;BMP180;494;48.744;10.106;2023-02-25T01:11:52;93878.00;;;4.50
30765;BMP180;494;48.744;10.106;2023-02-25T01:14:23;94395.00;;;4.50
30765;BMP180;494;48.744;10.106;2023-02-25T01:16:54;93782.00;;;4.40
30765;BMP180;494;48.744;10.106;2023-02-25T01:19:27;94304.00;;;4.00
30765;BMP180;494;48.744;10.106;2023-02-25T01:21:57;94051.00;;;4.50
30765;BMP180;494;48.744;10.106;2023-02-25T01:24:29;94385.00;;;4.40
30765;BMP180;494;48.744;10.106;2023-02-25T01:27:00;94473.00;;;4.60
30765;BMP180;494;48.744;10.106;2023-02-25T01:29:33;93967.00;;;2.80
30765;BMP180;494;48.744;10.106;2023-02-25T01:32:07;94526.00;;;4.70
30765;BMP180;494;48.744;10.106;2023-02-25T01:34:38;94413.00;;;4.80
30765;BMP180;494;48.744;10.106;2023-02-25T01:37:08;94411.00;;;5.00
30765;BMP180;494;48.744;10.106;2023-02-25T01:39:38;94421.00;;;5.00
30765;BMP180;494;48.744;10.106;2023-02-25T01:42:13;94416.00;;;4.10
30765;BMP180;494;48.744;10.106;2023-02-25T01:45:24;94421.00;;;4.80
30765;BMP180;494;48.744;10.106;2023-02-25T01:48:04;93949.00;;;4.70
30765;BMP180;494;48.744;10.106;2023-02-25T01:50:44;93169.00;;;0.00
30765;BMP180;494;48.744;10.106;2023-02-25T01:53:17;94201.00;;;4.40
30765;BMP180;494;48.744;10.106;2023-02-25T01:55:47;94187.00;;;2.80
30765;BMP180;494;48.744;10.106;2023-02-25T01:58:17;94482.00;;;4.50
30765;BMP180;494;48.744;10.106;2023-02-25T02:00:46;94442.00;;;4.80
30765;BMP180;494;48.744;10.106;2023-02-25T02:03:17;94283.00;;;4.60
30765;BMP180;494;48.744;10.106;2023-02-25T02:05:58;94423.00;;;4.70
30765;BMP180;494;48.744;10.106;2023-02-25T02:08:28;94645.00;;;2.40
30765;BMP180;494;48.744;10.106;2023-02-25T02:10:58;94547.00;;;4.80
30765;BMP180;494;48.744;10.106;2023-02-25T02:13:29;94582.00;;;4.80
30765;BMP180;494;48.744;10.106;2023-02-25T02:16:17;94492.00;;;4.50
30765;BMP180;494;48.744;10.106;2023-02-25T02:18:57;94527.00;;;4.50
30765;BMP180;494;48.744;10.106;2023-02-25T02:21:48;94478.00;;;4.40
30765;BMP180;494;48.744;10.106;2023-02-25T02:28:15;94372.00;;;2.90
30765;BMP180;494;48.744;10.106;2023-02-25T02:31:24;94410.00;;;4.50
30765;BMP180;494;48.744;10.106;2023-02-25T02:34:06;94096.00;;;4.60
30765;BMP180;494;48.744;10.106;2023-02-25T02:36:56;94480.00;;;4.60
30765;BMP180;494;48.744;10.106;2023-02-25T02:39:43;94172.00;;;3.70
30765;BMP180;494;48.744;10.106;2023-02-25T02:42:27;94404.00;;;4.40
30765;BMP180;494;48.744;10.106;2023-02-25T02:45:05;94497.00;;;4.50
30765;BMP180;494;48.744;10.106;2023-02-25T02:47:42;94149.00;;;1.90
30765;BMP180;494;48.744;10.106;2023-02-25T02:50:22;94493.00;;;4.50
30765;BMP180;494;48.744;10.106;2023-02-25T02:52:59;94184.00;;;-0.10
30765;BMP180;494;48.744;10.106;2023-02-25T02:55:35;94602.00;;;3.30
30765;BMP180;494;48.744;10.106;2023-02-25T02:58:12;94100.00;;;4.60
30765;BMP180;494;48.744;10.106;2023-02-25T03:00:49;94510.00;;;4.50
30765;BMP180;494;48.744;10.106;2023-02-25T03:03:29;94002.00;;;3.20
30765;BMP180;494;48.744;10.106;2023-02-25T03:06:08;94488.00;;;4.40
30765;BMP180;494;48.744;10.106;2023-02-25T03:08:43;93244.00;;;4.60
30765;BMP180;494;48.744;10.106;2023-02-25T03:11:14;94612.00;;;3.80
30765;BMP180;494;48.744;10.106;2023-02-25T03:13:44;94543.00;;;4.40
30765;BMP180;494;48.744;10.106;2023-02-25T03:16:23;93642.00;;;3.10
30765;BMP180;494;48.744;10.106;2023-02-25T03:19:01;94329.00;;;4.30
30765;BMP180;494;48.744;10.106;2023-02-25T03:21:38;94470.00;;;4.10
30765;BMP180;494;48.744;10.106;2023-02-25T03:24:16;94171.00;;;4.00
30765;BMP180;494;48.744;10.106;2023-02-25T03:26:50;94213.00;;;2.00
30765;BMP180;494;48.744;10.106;2023-02-25T03:29:23;93286.00;;;4.20
30765;BMP180;494;48.744;10.106;2023-02-25T03:31:58;94299.00;;;4.30
30765;BMP180;494;48.744;10.106;2023-02-25T03:34:35;94482.00;;;3.50
30765;BMP180;494;48.744;10.106;2023-02-25T03:37:10;94436.00;;;2.90
30765;BMP180;494;48.744;10.106;2023-02-25T03:39:45;94593.00;;;1.60
30765;BMP180;494;48.744;10.106;2023-02-25T03:42:20;94345.00;;;3.00
30765;BMP180;494;48.744;10.106;2023-02-25T03:44:51;94357.00;;;4.00
30765;BMP180;494;48.744;10.106;2023-02-25T03:47:23;94527.00;;;3.10
30765;BMP180;494;48.744;10.106;2023-02-25T03:49:59;94428.00;;;2.30
30765;BMP180;494;48.744;10.106;2023-02-25T03:52:30;94289.00;;;3.70
30765;BMP180;494;48.744;10.106;2023-02-25T03:54:58;94352.00;;;3.70
30765;BMP180;494;48.744;10.106;2023-02-25T03:57:36;94400.00;;;3.70
30765;BMP180;494;48.744;10.106;2023-02-25T04:00:07;93996.00;;;3.90
30765;BMP180;494;48.744;10.106;2023-02-25T04:02:43;94504.00;;;3.90
30765;BMP180;494;48.744;10.106;2023-02-25T04:05:16;94115.00;;;3.80
30765;BMP180;494;48.744;10.106;2023-02-25T04:07:45;94088.00;;;4.00
30765;BMP180;494;48.744;10.106;2023-02-25T04:10:15;93853.00;;;4.10
30765;BMP180;494;48.744;10.106;2023-02-25T04:12:44;94248.00;;;2.80
30765;BMP180;494;48.744;10.106;2023-02-25T04:15:13;94198.00;;;4.00
30765;BMP180;494;48.744;10.106;2023-02-25T04:17:42;93844.00;;;4.30
30765;BMP180;494;48.744;10.106;2023-02-25T04:20:14;94352.00;;;4.40
30765;BMP180;494;48.744;10.106;2023-02-25T04:22:43;94159.00;;;3.00
30765;BMP180;494;48.744;10.106;2023-02-25T04:25:12;93951.00;;;4.50
30765;BMP180;494;48.744;10.106;2023-02-25T04:27:41;93251.00;;;4.60
30765;BMP180;494;48.744;10.106;2023-02-25T04:30:11;94574.00;;;4.70
30765;BMP180;494;48.744;10.106;2023-02-25T04:32:41;94539.00;;;4.00
30765;BMP180;494;48.744;10.106;2023-02-25T04:35:10;94586.00;;;4.80
30765;BMP180;494;48.744;10.106;2023-02-25T04:37:41;94506.00;;;4.30
30765;BMP180;494;48.744;10.106;2023-02-25T04:40:14;94559.00;;;2.30
30765;BMP180;494;48.744;10.106;2023-02-25T04:42:43;93841.00;;;4.80
30765;BMP180;494;48.744;10.106;2023-02-25T04:45:13;94353.00;;;4.70
30765;BMP180;494;48.744;10.106;2023-02-25T04:47:42;94444.00;;;4.50
30765;BMP180;494;48.744;10.106;2023-02-25T04:50:11;94560.00;;;4.30
30765;BMP180;494;48.744;10.106;2023-02-25T04:52:41;94527.00;;;3.00
30765;BMP180;494;48.744;10.106;2023-02-25T04:55:10;93822.00;;;4.50
30765;BMP180;494;48.744;10.106;2023-02-25T04:57:40;94361.00;;;3.80
30765;BMP180;494;48.744;10.106;2023-02-25T05:00:17;94276.00;;;4.00
30765;BMP180;494;48.744;10.106;2023-02-25T05:02:47;94525.00;;;3.90
30765;BMP180;494;48.744;10.106;2023-02-25T05:05:17;94521.00;;;3.90
30765;BMP180;494;48.744;10.106;2023-02-25T05:07:47;94274.00;;;3.50
30765;BMP180;494;48.744;10.106;2023-02-25T05:10:16;94627.00;;;3.70
30765;BMP180;494;48.744;10.106;2023-02-25T05:12:44;94458.00;;;4.00
30765;BMP180;494;48.744;10.106;2023-02-25T05:15:13;94376.00;;;3.80
30765;BMP180;494;48.744;10.106;2023-02-25T05:17:42;94500.00;;;4.00
30765;BMP180;494;48.744;10.106;2023-02-25T05:20:11;94426.00;;;4.10
30765;BMP180;494;48.744;10.106;2023-02-25T05:22:41;93763.00;;;2.60
30765;BMP180;494;48.744;10.106;2023-02-25T05:25:13;94037.00;;;4.10
30765;BMP180;494;48.744;10.106;2023-02-25T05:27:42;94146.00;;;3.90
30765;BMP180;494;48.744;10.106;2023-02-25T05:30:13;94182.00;;;2.80
30765;BMP180;494;48.744;10.106;2023-02-25T05:32:41;94342.00;;;4.00
30765;BMP180;494;48.744;10.106;2023-02-25T05:35:10;94546.00;;;4.00
30765;BMP180;494;48.744;10.106;2023-02-25T05:37:39;94523.00;;;4.10
30765;BMP180;494;48.744;10.106;2023-02-25T05:40:09;94402.00;;;4.10
30765;BMP180;494;48.744;10.106;2023-02-25T05:42:41;94252.00;;;2.00
30765;BMP180;494;48.744;10.106;2023-02-25T05:45:10;94387.00;;;3.80
30765;BMP180;494;48.744;10.106;2023-02-25T05:47:39;94666.00;;;4.10
30765;BMP180;494;48.744;10.106;2023-02-25T05:50:09;94210.00;;;4.10
30765;BMP180;494;48.744;10.106;2023-02-25T05:52:38;94614.00;;;3.40
30765;BMP180;494;48.744;10.106;2023-02-25T05:55:07;94227.00;;;4.20
30765;BMP180;494;48.744;10.106;2023-02-25T05:57:36;94545.00;;;3.10
30765;BMP180;494;48.744;10.106;2023-02-25T06:00:08;94452.00;;;4.20
30765;BMP180;494;48.744;10.106;2023-02-25T06:02:41;94509.00;;;4.00
30765;BMP180;494;48.744;10.106;2023-02-25T06:05:10;94544.00;;;4.20
30765;BMP180;494;48.744;10.106;2023-02-25T06:07:39;94549.00;;;4.30
30765;BMP180;494;48.744;10.106;2023-02-25T06:10:09;93604.00;;;4.40
30765;BMP180;494;48.744;10.106;2023-02-25T06:12:38;94627.00;;;0.60
30765;BMP180;494;48.744;10.106;2023-02-25T06:15:09;94572.00;;;4.70
30765;BMP180;494;48.744;10.106;2023-02-25T06:17:40;94380.00;;;3.70
30765;BMP180;494;48.744;10.106;2023-02-25T06:20:10;94469.00;;;4.60
30765;BMP180;494;48.744;10.106;2023-02-25T06:22:40;94077.00;;;4.40
30765;BMP180;494;48.744;10.106;2023-02-25T06:25:09;93950.00;;;4.00
30765;BMP180;494;48.744;10.106;2023-02-25T06:27:37;94723.00;;;4.50
30765;BMP180;494;48.744;10.106;2023-02-25T06:30:09;94575.00;;;4.20
30765;BMP180;494;48.744;10.106;2023-02-25T06:32:38;94254.00;;;3.10
30765;BMP180;494;48.744;10.106;2023-02-25T06:35:08;93756.00;;;4.30
30765;BMP180;494;48.744;10.106;2023-02-25T06:37:36;93709.00;;;4.30
30765;BMP180;494;48.744;10.106;2023-02-25T06:40:06;94261.00;;;4.30
30765;BMP180;494;48.744;10.106;2023-02-25T06:42:35;94272.00;;;4.30
30765;BMP180;494;48.744;10.106;2023-02-25T06:45:05;94311.00;;;4.50
30765;BMP180;494;48.744;10.106;2023-02-25T06:47:35;94439.00;;;1.70
30765;BMP180;494;48.744;10.106;2023-02-25T06:50:04;94590.00;;;4.70
30765;BMP180;494;48.744;10.106;2023-02-25T06:52:33;94455.00;;;4.50
30765;BMP180;494;48.744;10.106;2023-02-25T06:55:02;94682.00;;;4.90
30765;BMP180;494;48.744;10.106;2023-02-25T06:57:32;94284.00;;;1.20
30765;BMP180;494;48.744;10.106;2023-02-25T07:00:02;94139.00;;;5.20
30765;BMP180;494;48.744;10.106;2023-02-25T07:02:32;94639.00;;;4.90
30765;BMP180;494;48.744;10.106;2023-02-25T07:05:02;94599.00;;;4.80
30765;BMP180;494;48.744;10.106;2023-02-25T07:07:31;94561.00;;;4.50
30765;BMP180;494;48.744;10.106;2023-02-25T07:10:00;94637.00;;;4.50
30765;BMP180;494;48.744;10.106;2023-02-25T07:12:29;94470.00;;;4.50
30765;BMP180;494;48.744;10.106;2023-02-25T07:14:58;94186.00;;;2.80
30765;BMP180;494;48.744;10.106;2023-02-25T07:17:26;94262.00;;;4.70
30765;BMP180;494;48.744;10.106;2023-02-25T07:19:56;93514.00;;;4.80
30765;BMP180;494;48.744;10.106;2023-02-25T07:22:26;94480.00;;;4.80
30765;BMP180;494;48.744;10.106;2023-02-25T07:24:54;93857.00;;;4.90
30765;BMP180;494;48.744;10.106;2023-02-25T07:27:23;94600.00;;;2.50
30765;BMP180;494;48.744;10.106;2023-02-25T07:29:52;94352.00;;;5.10
30765;BMP180;494;48.744;10.106;2023-02-25T07:32:23;94370.00;;;5.20
30765;BMP180;494;48.744;10.106;2023-02-25T07:34:52;94778.00;;;5.10
30765;BMP180;494;48.744;10.106;2023-02-25T07:37:21;94261.00;;;3.60
30765;BMP180;494;48.744;10.106;2023-02-25T07:39:51;94423.00;;;5.50
30765;BMP180;494;48.744;10.106;2023-02-25T07:42:19;93275.00;;;5.40
30765;BMP180;494;48.744;10.106;2023-02-25T07:44:48;94526.00;;;5.50
30765;BMP180;494;48.744;10.106;2023-02-25T07:47:17;94399.00;;;5.10
30765;BMP180;494;48.744;10.106;2023-02-25T07:49:46;94532.00;;;5.60
30765;BMP180;494;48.744;10.106;2023-02-25T07:52:15;94500.00;;;5.80
30765;BMP180;494;48.744;10.106;2023-02-25T07:54:43;94598.00;;;5.60
30765;BMP180;494;48.744;10.106;2023-02-25T07:57:13;94196.00;;;5.40
30765;BMP180;494;48.744;10.106;2023-02-25T07:59:42;94636.00;;;2.60
30765;BMP180;494;48.744;10.106;2023-02-25T08:02:11;94220.00;;;5.40
30765;BMP180;494;48.744;10.106;2023-02-25T08:04:40;94399.00;;;5.70
30765;BMP180;494;48.744;10.106;2023-02-25T08:07:09;94364.00;;;5.70
30765;BMP180;494;48.744;10.106;2023-02-25T08:09:37;94679.00;;;5.40
30765;BMP180;494;48.744;10.106;2023-02-25T08:12:08;94141.00;;;5.50
30765;BMP180;494;48.744;10.106;2023-02-25T08:14:38;94458.00;;;5.80
30765;BMP180;494;48.744;10.106;2023-02-25T08:17:06;94616.00;;;5.10
30765;BMP180;494;48.744;10.106;2023-02-25T08:19:35;94493.00;;;5.80
30765;BMP180;494;48.744;10.106;2023-02-25T08:22:04;94613.00;;;5.40
30765;BMP180;494;48.744;10.106;2023-02-25T08:24:32;94133.00;;;5.30
30765;BMP180;494;48.744;10.106;2023-02-25T08:27:00;94016.00;;;5.60
30765;BMP180;494;48.744;10.106;2023-02-25T08:29:29;94194.00;;;5.60
30765;BMP180;494;48.744;10.106;2023-02-25T08:31:59;94313.00;;;5.40
30765;BMP180;494;48.744;10.106;2023-02-25T08:34:28;94642.00;;;5.50
30765;BMP180;494;48.744;10.106;2023-02-25T08:36:56;94680.00;;;5.40
30765;BMP180;494;48.744;10.106;2023-02-25T08:39:25;94425.00;;;3.40
30765;BMP180;494;48.744;10.106;2023-02-25T08:41:55;94719.00;;;4.90
30765;BMP180;494;48.744;10.106;2023-02-25T08:44:23;94617.00;;;5.70
30765;BMP180;494;48.744;10.106;2023-02-25T08:46:52;94307.00;;;5.80
30765;BMP180;494;48.744;10.106;2023-02-25T08:49:22;94614.00;;;6.00
30765;BMP180;494;48.744;10.106;2023-02-25T08:51:50;94683.00;;;6.10
30765;BMP180;494;48.744;10.106;2023-02-25T08:54:19;94289.00;;;5.60
30765;BMP180;494;48.744;10.106;2023-02-25T08:56:49;94611.00;;;6.40
30765;BMP180;494;48.744;10.106;2023-02-25T08:59:18;94349.00;;;5.20
30765;BMP180;494;48.744;10.106;2023-02-25T09:01:47;94523.00;;;6.30
30765;BMP180;494;48.744;10.106;2023-02-25T09:04:19;93712.00;;;6.60
30765;BMP180;494;48.744;10.106;2023-02-25T09:06:50;94620.00;;;6.50
30765;BMP180;494;48.744;10.106;2023-02-25T09:09:20;94470.00;;;6.30
30765;BMP180;494;48.744;10.106;2023-02-25T09:11:49;94323.00;;;6.60
30765;BMP180;494;48.744;10.106;2023-02-25T09:14:20;94288.00;;;5.90
30765;BMP180;494;48.744;10.106;2023-02-25T09:16:49;94644.00;;;7.00
30765;BMP180;494;48.744;10.106;2023-02-25T09:19:18;94614.00;;;7.00
30765;BMP180;494;48.744;10.106;2023-02-25T09:21:47;94663.00;;;6.90
30765;BMP180;494;48.744;10.106;2023-02-25T09:24:19;94641.00;;;6.90
30765;BMP180;494;48.744;10.106;2023-02-25T09:26:48;94321.00;;;7.10
30765;BMP180;494;48.744;10.106;2023-02-25T09:29:16;94082.00;;;7.00
30765;BMP180;494;48.744;10.106;2023-02-25T09:31:45;94513.00;;;7.00
30765;BMP180;494;48.744;10.106;2023-02-25T09:34:13;94446.00;;;7.30
30765;BMP180;494;48.744;10.106;2023-02-25T09:36:42;94550.00;;;7.20
30765;BMP180;494;48.744;10.106;2023-02-25T09:39:11;94612.00;;;7.20
30765;BMP180;494;48.744;10.106;2023-02-25T09:41:48;94275.00;;;5.70
30765;BMP180;494;48.744;10.106;2023-02-25T09:44:26;94405.00;;;7.10
30765;BMP180;494;48.744;10.106;2023-02-25T09:47:01;94658.00;;;7.60
30765;BMP180;494;48.744;10.106;2023-02-25T09:49:36;94546.00;;;7.10
30765;BMP180;494;48.744;10.106;2023-02-25T09:52:13;94252.00;;;6.30
30765;BMP180;494;48.744;10.106;2023-02-25T09:54:47;94607.00;;;7.90
30765;BMP180;494;48.744;10.106;2023-02-25T09:57:20;94629.00;;;7.30
30765;BMP180;494;48.744;10.106;2023-02-25T09:59:51;94591.00;;;7.90
30765;BMP180;494;48.744;10.106;2023-02-25T10:02:30;94497.00;;;8.20
30765;BMP180;494;48.744;10.106;2023-02-25T10:05:20;94327.00;;;8.20
30765;BMP180;494;48.744;10.106;2023-02-25T10:08:06;94592.00;;;8.00
30765;BMP180;494;48.744;10.106;2023-02-25T10:10:45;94684.00;;;7.80
30765;BMP180;494;48.744;10.106;2023-02-25T10:13:35;94209.00;;;8.00
30765;BMP180;494;48.744;10.106;2023-02-25T10:16:21;94590.00;;;7.70
30765;BMP180;494;48.744;10.106;2023-02-25T10:19:05;94598.00;;;7.70
30765;BMP180;494;48.744;10.106;2023-02-25T10:22:01;94272.00;;;7.60
30765;BMP180;494;48.744;10.106;2023-02-25T10:24:42;94644.00;;;7.60
30765;BMP180;494;48.744;10.106;2023-02-25T10:27:20;94590.00;;;7.80
30765;BMP180;494;48.744;10.106;2023-02-25T10:30:00;94645.00;;;7.60
30765;BMP180;494;48.744;10.106;2023-02-25T10:32:34;94590.00;;;7.60
30765;BMP180;494;48.744;10.106;2023-02-25T10:35:14;94589.00;;;7.60
30765;BMP180;494;48.744;10.106;2023-02-25T10:37:45;94620.00;;;7.40
30765;BMP180;494;48.744;10.106;2023-02-25T10:40:16;94578.00;;;7.30
30765;BMP180;494;48.744;10.106;2023-02-25T10:42:47;94494.00;;;7.20
30765;BMP180;494;48.744;10.106;2023-02-25T10:45:23;94215.00;;;7.30
30765;BMP180;494;48.744;10.106;2023-02-25T10:48:03;94600.00;;;5.70
30765;BMP180;494;48.744;10.106;2023-02-25T10:50:33;94442.00;;;7.00
30765;BMP180;494;48.744;10.106;2023-02-25T10:53:15;94605.00;;;6.70
30765;BMP180;494;48.744;10.106;2023-02-25T10:55:49;94575.00;;;7.10
30765;BMP180;494;48.744;10.106;2023-02-25T10:58:29;94602.00;;;7.10
30765;BMP180;494;48.744;10.106;2023-02-25T11:01:15;94467.00;;;6.90
30765;BMP180;494;48.744;10.106;2023-02-25T11:03:52;94259.00;;;7.20
30765;BMP180;494;48.744;10.106;2023-02-25T11:06:24;94573.00;;;6.70
30765;BMP180;494;48.744;10.106;2023-02-25T11:08:55;94577.00;;;6.90
30765;BMP180;494;48.744;10.106;2023-02-25T11:11:28;94525.00;;;7.10
30765;BMP180;494;48.744;10.106;2023-02-25T11:14:03;94566.00;;;7.30
30765;BMP180;494;48.744;10.106;2023-02-25T11:16:36;94577.00;;;7.20
30765;BMP180;494;48.744;10.106;2023-02-25T11:19:14;94587.00;;;6.60
30765;BMP180;494;48.744;10.106;2023-02-25T11:21:45;94492.00;;;7.40
30765;BMP180;494;48.744;10.106;2023-02-25T11:24:16;94562.00;;;7.00
30765;BMP180;494;48.744;10.106;2023-02-25T11:26:50;94522.00;;;7.40
30765;BMP180;494;48.744;10.106;2023-02-25T11:29:22;94452.00;;;6.90
30765;BMP180;494;48.744;10.106;2023-02-25T11:32:01;93912.00;;;7.30
30765;BMP180;494;48.744;10.106;2023-02-25T11:34:45;94324.00;;;7.10
30765;BMP180;494;48.744;10.106;2023-02-25T11:37:33;94612.00;;;7.40
30765;BMP180;494;48.744;10.106;2023-02-25T11:40:23;94438.00;;;7.20
30765;BMP180;494;48.744;10.106;2023-02-25T11:43:13;94513.00;;;7.20
30765;BMP180;494;48.744;10.106;2023-02-25T11:45:53;94357.00;;;7.10
30765;BMP180;494;48.744;10.106;2023-02-25T11:48:28;94215.00;;;6.90
30765;BMP180;494;48.744;10.106;2023-02-25T11:51:12;94109.00;;;7.70
30765;BMP180;494;48.744;10.106;2023-02-25T11:54:01;94453.00;;;7.80
30765;BMP180;494;48.744;10.106;2023-02-25T11:56:36;94577.00;;;7.90
30765;BMP180;494;48.744;10.106;2023-02-25T11:59:25;94264.00;;;7.90
30765;BMP180;494;48.744;10.106;2023-02-25T12:02:25;94543.00;;;8.00
30765;BMP180;494;48.744;10.106;2023-02-25T12:05:23;94274.00;;;7.80
30765;BMP180;494;48.744;10.106;2023-02-25T12:08:07;94533.00;;;7.60
30765;BMP180;494;48.744;10.106;2023-02-25T12:18:20;94530.00;;;8.70
30765;BMP180;494;48.744;10.106;2023-02-25T12:21:35;94534.00;;;8.00
30765;BMP180;494;48.744;10.106;2023-02-25T12:24:46;94295.00;;;7.50
30765;BMP180;494;48.744;10.106;2023-02-25T12:27:50;94532.00;;;7.50
30765;BMP180;494;48.744;10.106;2023-02-25T12:31:22;94540.00;;;7.10
30765;BMP180;494;48.744;10.106;2023-02-25T12:34:14;94488.00;;;7.00
30765;BMP180;494;48.744;10.106;2023-02-25T12:37:23;94548.00;;;6.70
30765;BMP180;494;48.744;10.106;2023-02-25T12:40:17;94386.00;;;7.40
30765;BMP180;494;48.744;10.106;2023-02-25T12:43:06;94116.00;;;8.00
30765;BMP180;494;48.744;10.106;2023-02-25T12:46:15;94524.00;;;8.40
30765;BMP180;494;48.744;10.106;2023-02-25T12:49:24;94524.00;;;8.50
30765;BMP180;494;48.744;10.106;2023-02-25T12:52:24;94559.00;;;8.50
30765;BMP180;494;48.744;10.106;2023-02-25T12:55:23;94330.00;;;8.50
30765;BMP180;494;48.744;10.106;2023-02-25T12:58:17;94199.00;;;7.70
30765;BMP180;494;48.744;10.106;2023-02-25T13:04:46;94477.00;;;6.80
30765;BMP180;494;48.744;10.106;2023-02-25T13:07:36;94335.00;;;8.00
30765;BMP180;494;48.744;10.106;2023-02-25T13:10:51;94532.00;;;8.30
30765;BMP180;494;48.744;10.106;2023-02-25T13:17:23;94530.00;;;8.00
30765;BMP180;494;48.744;10.106;2023-02-25T13:20:42;94520.00;;;7.50
30765;BMP180;494;48.744;10.106;2023-02-25T13:23:45;94510.00;;;6.30
30765;BMP180;494;48.744;10.106;2023-02-25T13:26:44;94521.00;;;7.50
30765;BMP180;494;48.744;10.106;2023-02-25T13:29:38;94562.00;;;7.00
30765;BMP180;494;48.744;10.106;2023-02-25T13:32:25;94385.00;;;6.90
30765;BMP180;494;48.744;10.106;2023-02-25T13:35:17;94163.00;;;6.80
30765;BMP180;494;48.744;10.106;2023-02-25T13:38:03;94540.00;;;6.50
30765;BMP180;494;48.744;10.106;2023-02-25T13:40:57;94458.00;;;6.60
30765;BMP180;494;48.744;10.106;2023-02-25T13:43:49;94417.00;;;6.40
30765;BMP180;494;48.744;10.106;2023-02-25T13:46:37;94259.00;;;6.80
30765;BMP180;494;48.744;10.106;2023-02-25T13:52:28;94563.00;;;6.80
30765;BMP180;494;48.744;10.106;2023-02-25T13:55:23;94426.00;;;6.90
30765;BMP180;494;48.744;10.106;2023-02-25T13:58:39;94161.00;;;7.10
30765;BMP180;494;48.744;10.106;2023-02-25T14:01:29;94565.00;;;8.30
30765;BMP180;494;48.744;10.106;2023-02-25T14:04:54;94497.00;;;11.50
30765;BMP180;494;48.744;10.106;2023-02-25T14:07:46;94487.00;;;14.60
30765;BMP180;494;48.744;10.106;2023-02-25T14:10:30;94519.00;;;15.70
30765;BMP180;494;48.744;10.106;2023-02-25T14:13:34;94475.00;;;17.90
30765;BMP180;494;48.744;10.106;2023-02-25T14:16:26;94417.00;;;17.90
30765;BMP180;494;48.744;10.106;2023-02-25T14:19:21;94494.00;;;17.10
30765;BMP180;494;48.744;10.106;2023-02-25T14:22:21;94347.00;;;15.80
30765;BMP180;494;48.744;10.106;2023-02-25T14:25:04;94496.00;;;13.20
30765;BMP180;494;48.744;10.106;2023-02-25T14:27:49;93877.00;;;11.70
30765;BMP180;494;48.744;10.106;2023-02-25T14:30:37;94555.00;;;8.90
30765;BMP180;494;48.744;10.106;2023-02-25T14:36:56;94572.00;;;10.00
30765;BMP180;494;48.744;10.106;2023-02-25T14:39:44;94282.00;;;10.20
30765;BMP180;494;48.744;10.106;2023-02-25T14:42:31;94519.00;;;9.10
30765;BMP180;494;48.744;10.106;2023-02-25T14:45:15;94083.00;;;8.60
30765;BMP180;494;48.744;10.106;2023-02-25T14:47:59;94427.00;;;6.50
30765;BMP180;494;48.744;10.106;2023-02-25T14:50:35;94397.00;;;8.50
30765;BMP180;494;48.744;10.106;2023-02-25T14:53:47;94249.00;;;8.10
30765;BMP180;494;48.744;10.106;2023-02-25T14:56:45;94558.00;;;8.30
30765;BMP180;494;48.744;10.106;2023-02-25T15:00:09;94521.00;;;9.30
30765;BMP180;494;48.744;10.106;2023-02-25T15:03:05;94511.00;;;11.10
30765;BMP180;494;48.744;10.106;2023-02-25T15:05:54;94382.00;;;10.90
30765;BMP180;494;48.744;10.106;2023-02-25T15:09:06;94506.00;;;13.10
30765;BMP180;494;48.744;10.106;2023-02-25T15:12:12;94420.00;;;12.70
30765;BMP180;494;48.744;10.106;2023-02-25T15:15:28;94506.00;;;14.00
30765;BMP180;494;48.744;10.106;2023-02-25T15:18:35;94292.00;;;14.30
30765;BMP180;494;48.744;10.106;2023-02-25T15:21:34;94534.00;;;15.00
30765;BMP180;494;48.744;10.106;2023-02-25T15:24:09;94510.00;;;15.60
30765;BMP180;494;48.744;10.106;2023-02-25T15:26:42;94372.00;;;15.40
30765;BMP180;494;48.744;10.106;2023-02-25T15:29:54;94535.00;;;13.90
30765;BMP180;494;48.744;10.106;2023-02-25T15:32:26;94558.00;;;14.10
30765;BMP180;494;48.744;10.106;2023-02-25T15:35:00;94536.00;;;13.20
30765;BMP180;494;48.744;10.106;2023-02-25T15:37:34;94444.00;;;12.10
30765;BMP180;494;48.744;10.106;2023-02-25T15:40:44;94549.00;;;10.70
30765;BMP180;494;48.744;10.106;2023-02-25T15:43:41;94558.00;;;10.10
30765;BMP180;494;48.744;10.106;2023-02-25T15:46:42;94560.00;;;9.40
30765;BMP180;494;48.744;10.106;2023-02-25T15:49:27;94389.00;;;8.30
30765;BMP180;494;48.744;10.106;2023-02-25T15:52:01;94602.00;;;8.30
30765;BMP180;494;48.744;10.106;2023-02-25T15:54:49;94379.00;;;7.00
30765;BMP180;494;48.744;10.106;2023-02-25T15:57:36;94632.00;;;6.10
30765;BMP180;494;48.744;10.106;2023-02-25T16:00:59;94607.00;;;5.70